FW3609 Weather Reports


Display with metric or nautical units.
time (UTC)temp
F
wind
direction
speed
MPH
gust
MPH
rain 1hr
in
rain 24hr
in
rain mn
in
humidity
%
barometer
mb
20220528044602 63 270 0.0 0.0 0.00 0.43 0.00 97 1009.2
20220528043041 63 270 0.0 0.0 0.00 0.43 0.00 96 1009.4
20220528041554 63 270 0.0 0.0 0.00 0.43 0.00 96 1009.1
20220528040100 63 270 0.0 0.0 0.00 0.43 0.43 96 1009.3
20220528034545 64 270 0.0 0.0 0.00 0.43 0.43 95 1009.5
20220528033040 64 270 0.0 0.0 0.00 0.43 0.43 95 1009.6
20220528031528 64 311 0.0 0.0 0.01 0.43 0.43 94 1009.6
20220528030104 65 105 0.0 2.0 0.01 0.43 0.43 92 1009.4
20220528024551 65 250 0.0 7.0 0.01 0.43 0.43 90 1009.5
20220528023006 67 295 5.0 11.0 0.01 0.43 0.43 89 1009.6
20220528021556 69 240 1.0 5.0 0.01 0.42 0.42 96 1009.7
20220528020030 69 110 0.0 0.0 0.03 0.42 0.42 96 1009.2
20220528014528 69 250 0.0 1.0 0.03 0.42 0.42 96 1009.2
20220528013024 70 134 1.0 4.0 0.03 0.42 0.42 95 1009.1
20220528011511 70 278 0.0 0.0 0.02 0.41 0.41 93 1009.3
20220528010044 71 136 0.0 1.0 0.00 0.39 0.39 92 1009.4
20220528004519 71 140 1.0 4.0 0.00 0.39 0.39 91 1009.3
20220528003011 71 125 0.0 3.0 0.00 0.39 0.39 90 1009.3
20220528001601 71 114 0.0 2.0 0.00 0.39 0.39 90 1009.3
20220528000030 71 123 2.0 4.0 0.00 0.39 0.39 89 1009.2
20220527234514 72 132 0.0 5.0 0.00 0.39 0.39 89 1009.4
20220527233002 72 122 0.0 4.0 0.00 0.39 0.39 88 1009.7
20220527231550 72 126 0.0 4.0 0.00 0.39 0.39 88 1009.6
20220527230017 72 101 1.0 3.0 0.00 0.39 0.39 87 1009.4
20220527224508 72 138 0.0 0.0 0.00 0.39 0.39 87 1009.6
20220527223102 72 103 0.0 5.0 0.00 0.39 0.39 87 1009.5
20220527221601 72 124 1.0 3.0 0.00 0.39 0.39 88 1009.6
20220527220032 72 115 0.0 1.0 0.00 0.39 0.39 88 1009.7
20220527214525 72 153 0.0 3.0 0.00 0.39 0.39 87 1009.8
20220527213010 72 274 0.0 3.0 0.00 0.39 0.39 87 1010.0
20220527211511 72 127 0.0 5.0 0.00 0.39 0.39 88 1010.1
20220527210044 72 147 0.0 4.0 0.00 0.39 0.39 87 1010.1
20220527204530 71 216 1.0 4.0 0.00 0.39 0.39 90 1010.3
20220527203011 70 136 1.0 3.0 0.00 0.39 0.39 91 1010.3
20220527201604 70 222 1.0 3.0 0.00 0.39 0.39 92 1010.7
20220527200045 69 158 1.0 6.0 0.00 0.39 0.39 92 1011.0
20220527194531 69 139 0.0 6.0 0.00 0.39 0.39 93 1011.4
20220527193023 69 289 1.0 5.0 0.00 0.39 0.39 94 1011.7
20220527191527 69 117 2.0 8.0 0.00 0.39 0.39 94 1011.7
20220527190052 69 243 1.0 9.0 0.00 0.39 0.39 94 1011.7
20220527184548 68 198 0.0 4.0 0.01 0.39 0.39 96 1011.8
20220527183045 68 118 1.0 6.0 0.02 0.39 0.39 96 1011.7
20220527181531 67 167 0.0 2.0 0.02 0.39 0.39 97 1011.8
20220527180057 67 147 0.0 1.0 0.05 0.39 0.39 97 1011.8
20220527174546 67 115 0.0 5.0 0.13 0.38 0.38 96 1011.9
20220527173042 67 206 1.0 4.0 0.34 0.37 0.37 96 1012.6
20220527171506 66 127 1.0 3.0 0.37 0.37 0.37 95 1012.9
20220527170028 67 143 0.0 5.0 0.34 0.34 0.34 93 1012.8
20220527164517 68 135 2.0 14.0 0.23 0.23 0.23 90 1013.7
20220527163015 77 285 3.0 13.0 0.00 0.00 0.00 80 1012.7
20220527161505 78 184 3.0 9.0 0.00 0.00 0.00 79 1012.3
20220527160043 78 128 4.0 9.0 0.00 0.00 0.00 81 1012.4
20220527154524 77 333 4.0 11.0 0.00 0.00 0.00 83 1012.7
20220527153010 76 247 3.0 11.0 0.00 0.00 0.00 84 1012.9
20220527151555 75 103 1.0 7.0 0.00 0.00 0.00 85 1013.0
20220527150019 75 146 2.0 9.0 0.00 0.00 0.00 85 1013.3
20220527144544 74 119 2.0 8.0 0.00 0.00 0.00 89 1013.5
20220527143026 72 136 0.0 7.0 0.00 0.00 0.00 92 1013.7
20220527141511 71 121 1.0 3.0 0.00 0.00 0.00 93 1014.0
20220527140055 71 73 0.0 3.0 0.00 0.00 0.00 95 1014.0
20220527134531 70 98 1.0 4.0 0.00 0.00 0.00 96 1014.3
20220527133007 69 122 1.0 6.0 0.00 0.00 0.00 97 1014.4
20220527131602 69 132 1.0 4.0 0.00 0.00 0.00 97 1014.8
20220527130042 69 115 0.0 8.0 0.00 0.00 0.00 98 1014.9
20220527124518 68 129 0.0 3.0 0.00 0.00 0.00 98 1015.1
20220527123010 68 158 1.0 6.0 0.00 0.00 0.00 97 1015.2
20220527121509 68 111 0.0 3.0 0.00 0.00 0.00 97 1015.3
20220527120041 68 122 0.0 5.0 0.00 0.00 0.00 97 1015.3
20220527114527 68 127 0.0 4.0 0.00 0.00 0.00 97 1015.5
20220527113027 68 115 0.0 2.0 0.00 0.00 0.00 96 1015.5
20220527111515 67 109 2.0 5.0 0.00 0.00 0.00 96 1015.7
20220527110049 67 105 1.0 5.0 0.00 0.00 0.00 96 1015.7
20220527104532 67 97 2.0 4.0 0.00 0.00 0.00 96 1015.7
20220527103022 67 118 2.0 5.0 0.00 0.00 0.00 96 1015.8
20220527101518 67 150 1.0 4.0 0.00 0.00 0.00 96 1015.8
20220527100055 67 130 1.0 4.0 0.00 0.00 0.00 96 1015.8
20220527094542 67 100 3.0 8.0 0.00 0.00 0.00 96 1015.7
20220527093020 67 118 1.0 4.0 0.00 0.00 0.00 96 1015.7
20220527091530 67 125 1.0 5.0 0.00 0.00 0.00 96 1015.7
20220527090045 67 118 3.0 7.0 0.00 0.00 0.00 96 1016.0
20220527084534 67 113 2.0 5.0 0.00 0.00 0.00 96 1016.2
20220527083030 67 167 1.0 7.0 0.00 0.00 0.00 96 1016.4
20220527081512 67 284 0.0 5.0 0.00 0.00 0.00 96 1016.5
20220527080046 67 139 2.0 4.0 0.00 0.00 0.00 96 1016.6
20220527074544 67 126 0.0 3.0 0.00 0.00 0.00 96 1016.9
20220527073020 67 113 0.0 2.0 0.00 0.00 0.00 96 1017.3
20220527071510 67 100 0.0 0.0 0.00 0.00 0.00 96 1017.5
20220527070052 67 125 0.0 0.0 0.00 0.00 0.00 96 1017.6
20220527064534 67 111 0.0 0.0 0.00 0.00 0.00 96 1017.6
20220527063028 67 115 0.0 2.0 0.00 0.00 0.00 96 1017.6
20220527061523 67 122 0.0 3.0 0.00 0.00 0.00 96 1017.8
20220527060106 67 110 0.0 4.0 0.00 0.00 0.00 96 1017.9
20220527054554 67 236 0.0 1.0 0.00 0.00 0.00 96 1018.1
20220527053042 67 128 0.0 2.0 0.00 0.00 0.00 96 1018.2
20220527051533 67 105 0.0 4.0 0.00 0.00 0.00 96 1018.3
20220527050002 67 120 0.0 0.0 0.00 0.00 0.00 96 1018.7